createdAt,value
2023-09-07T00:00:36.476Z,4.30
2023-09-07T00:03:24.609Z,3.90
2023-09-07T00:06:01.049Z,4.30
2023-09-07T00:08:29.505Z,4.10
2023-09-07T00:11:04.393Z,4.30
2023-09-07T00:13:33.015Z,4.00
2023-09-07T00:16:02.342Z,3.50
2023-09-07T00:18:31.206Z,3.70
2023-09-07T00:21:00.733Z,3.90
2023-09-07T00:23:28.867Z,4.10
2023-09-07T00:26:00.911Z,4.70
2023-09-07T00:28:29.442Z,4.20
2023-09-07T00:30:58.039Z,4.50
2023-09-07T00:33:26.221Z,3.90
2023-09-07T00:36:03.004Z,3.70
2023-09-07T00:38:31.491Z,4.20
2023-09-07T00:41:00.369Z,4.70
2023-09-07T00:43:28.544Z,3.90
2023-09-07T00:46:05.096Z,3.60
2023-09-07T00:48:35.064Z,3.90
2023-09-07T00:51:11.260Z,4.50
2023-09-07T00:53:39.514Z,4.10
2023-09-07T00:56:09.098Z,3.80
2023-09-07T00:58:38.118Z,3.80
2023-09-07T01:01:14.758Z,4.40
2023-09-07T01:03:43.124Z,4.30
2023-09-07T01:06:20.041Z,3.50
2023-09-07T01:08:50.840Z,3.60
2023-09-07T01:11:27.909Z,4.00
2023-09-07T01:13:56.747Z,3.80
2023-09-07T01:16:25.853Z,3.80
2023-09-07T01:18:55.315Z,4.30
2023-09-07T01:21:24.714Z,5.00
2023-09-07T01:23:53.663Z,4.40
2023-09-07T01:26:30.614Z,4.70
2023-09-07T01:28:59.214Z,4.20
2023-09-07T01:31:28.071Z,4.70
2023-09-07T01:33:56.295Z,5.20
2023-09-07T01:36:24.879Z,4.60
2023-09-07T01:38:53.025Z,3.70
2023-09-07T01:41:31.106Z,4.10
2023-09-07T01:43:59.314Z,4.20
2023-09-07T01:46:28.421Z,4.10
2023-09-07T01:48:57.063Z,4.60
2023-09-07T01:51:29.265Z,4.00
2023-09-07T01:53:57.505Z,4.10
2023-09-07T01:56:26.001Z,3.80
2023-09-07T01:58:54.338Z,5.10
2023-09-07T02:01:44.810Z,4.30
2023-09-07T02:04:12.991Z,4.70
2023-09-07T02:07:05.026Z,4.70
2023-09-07T02:09:33.900Z,4.90
2023-09-07T02:12:10.348Z,4.70
2023-09-07T02:14:38.580Z,4.20
2023-09-07T02:17:11.114Z,4.90
2023-09-07T02:19:39.509Z,4.30
2023-09-07T02:22:27.681Z,4.60
2023-09-07T02:24:55.863Z,5.10
2023-09-07T02:27:25.982Z,5.70
2023-09-07T02:29:54.299Z,5.00
2023-09-07T02:32:24.723Z,4.40
2023-09-07T02:34:53.126Z,4.40
2023-09-07T02:37:21.326Z,4.90
2023-09-07T02:39:49.499Z,4.60
2023-09-07T02:42:26.019Z,4.80
2023-09-07T02:44:55.075Z,4.40
2023-09-07T02:47:31.292Z,4.40
2023-09-07T02:49:59.741Z,4.60
2023-09-07T02:52:27.958Z,4.60
2023-09-07T02:54:56.832Z,4.10
2023-09-07T02:57:29.398Z,4.70
2023-09-07T02:59:57.572Z,4.80
2023-09-07T03:02:49.748Z,3.90
2023-09-07T03:05:18.390Z,4.30
2023-09-07T03:07:50.269Z,5.10
2023-09-07T03:10:19.654Z,4.90
2023-09-07T03:12:48.118Z,4.70
2023-09-07T03:15:17.187Z,5.00
2023-09-07T03:17:47.462Z,5.40
2023-09-07T03:20:16.047Z,5.10
2023-09-07T03:22:57.527Z,4.50
2023-09-07T03:25:26.364Z,5.40
2023-09-07T03:27:54.652Z,4.70
2023-09-07T03:30:22.948Z,4.40
2023-09-07T03:32:51.776Z,4.90
2023-09-07T03:35:20.242Z,4.00
2023-09-07T03:37:56.657Z,4.10
2023-09-07T03:40:24.909Z,4.80
2023-09-07T03:42:55.411Z,4.90
2023-09-07T03:45:23.824Z,4.20
2023-09-07T03:48:00.509Z,4.40
2023-09-07T03:50:29.506Z,4.90
2023-09-07T03:52:57.724Z,4.30
2023-09-07T03:55:25.988Z,4.60
2023-09-07T03:57:56.164Z,4.80
2023-09-07T04:00:25.357Z,4.60
2023-09-07T04:03:33.684Z,4.70
2023-09-07T04:06:38.478Z,4.90
2023-09-07T04:09:06.634Z,3.90
2023-09-07T04:11:58.762Z,4.80
2023-09-07T04:14:26.948Z,4.50
2023-09-07T04:16:55.184Z,4.70
2023-09-07T04:19:23.309Z,4.60
2023-09-07T04:21:52.926Z,4.80
2023-09-07T04:24:21.438Z,5.00
2023-09-07T04:26:57.785Z,4.50
2023-09-07T04:29:25.934Z,4.30
2023-09-07T04:31:58.021Z,4.60
2023-09-07T04:34:26.544Z,5.40
2023-09-07T04:36:56.724Z,4.60
2023-09-07T04:39:24.872Z,5.00
2023-09-07T04:41:54.116Z,5.20
2023-09-07T04:44:22.967Z,5.30
2023-09-07T04:46:59.656Z,5.30
2023-09-07T04:49:27.805Z,5.20
2023-09-07T04:51:57.999Z,4.90
2023-09-07T04:54:27.013Z,5.20
2023-09-07T04:57:11.205Z,4.70
2023-09-07T04:59:39.734Z,4.20
2023-09-07T05:02:29.756Z,5.00
2023-09-07T05:04:58.211Z,4.30
2023-09-07T05:07:48.559Z,4.90
2023-09-07T05:10:17.952Z,4.40
2023-09-07T05:13:26.410Z,4.40
2023-09-07T05:16:18.965Z,4.90
2023-09-07T05:18:47.293Z,5.00
2023-09-07T05:21:24.647Z,5.70
2023-09-07T05:23:53.546Z,4.90
2023-09-07T05:26:31.757Z,6.10
2023-09-07T05:29:00.092Z,5.70
2023-09-07T05:31:28.615Z,5.20
2023-09-07T05:33:56.889Z,6.10
2023-09-07T05:36:25.805Z,4.60
2023-09-07T05:38:54.134Z,4.90
2023-09-07T05:41:30.986Z,4.90
2023-09-07T05:43:59.257Z,5.40
2023-09-07T05:46:29.516Z,4.80
2023-09-07T05:48:57.891Z,5.20
2023-09-07T05:51:26.069Z,5.30
2023-09-07T05:53:56.583Z,4.40
2023-09-07T05:56:25.160Z,6.00
2023-09-07T05:58:54.026Z,4.90
2023-09-07T06:01:22.739Z,5.00
2023-09-07T06:03:51.430Z,4.60
2023-09-07T06:06:19.773Z,5.10
2023-09-07T06:08:47.950Z,5.20
2023-09-07T06:11:16.263Z,5.10
2023-09-07T06:13:45.069Z,4.20
2023-09-07T06:16:13.540Z,5.70
2023-09-07T06:18:41.906Z,4.30
2023-09-07T06:21:10.280Z,5.30
2023-09-07T06:23:38.483Z,4.80
2023-09-07T06:26:06.779Z,4.90
2023-09-07T06:28:35.754Z,5.30
2023-09-07T06:31:04.159Z,4.30
2023-09-07T06:33:32.615Z,5.10
2023-09-07T06:36:03.271Z,5.10
2023-09-07T06:38:53.894Z,5.10
2023-09-07T06:41:42.904Z,4.70
2023-09-07T06:44:12.315Z,4.20
2023-09-07T06:46:42.306Z,4.90
2023-09-07T06:49:10.754Z,4.10
2023-09-07T06:51:47.004Z,4.30
2023-09-07T06:54:15.298Z,4.80
2023-09-07T06:56:46.894Z,4.80
2023-09-07T06:59:15.416Z,4.90
2023-09-07T07:01:47.903Z,4.70
2023-09-07T07:04:16.250Z,4.90
2023-09-07T07:07:06.238Z,4.60
2023-09-07T07:09:35.334Z,5.00
2023-09-07T07:12:07.003Z,5.30
2023-09-07T07:14:35.798Z,4.60
2023-09-07T07:17:28.466Z,4.70
2023-09-07T07:19:57.241Z,4.70
2023-09-07T07:22:27.901Z,5.50
2023-09-07T07:24:56.630Z,5.50
2023-09-07T07:28:01.736Z,5.20
2023-09-07T07:30:31.159Z,4.20
2023-09-07T07:33:02.323Z,4.70
2023-09-07T07:35:39.728Z,4.40
2023-09-07T07:38:09.213Z,5.10
2023-09-07T07:40:39.241Z,5.00
2023-09-07T07:43:11.693Z,5.20
2023-09-07T07:45:40.701Z,5.40
2023-09-07T07:48:09.971Z,5.20
2023-09-07T07:50:41.399Z,4.90
2023-09-07T07:53:11.820Z,4.80
2023-09-07T07:55:40.772Z,4.70
2023-09-07T07:58:28.801Z,4.50
2023-09-07T08:00:59.189Z,4.40
2023-09-07T08:03:30.129Z,5.00
2023-09-07T08:05:59.102Z,4.30
2023-09-07T08:08:27.523Z,4.50
2023-09-07T08:10:56.002Z,4.70
2023-09-07T08:13:26.393Z,4.30
2023-09-07T08:15:55.139Z,4.90
2023-09-07T08:18:25.694Z,4.40
2023-09-07T08:20:55.597Z,3.60
2023-09-07T08:23:25.179Z,4.30
2023-09-07T08:25:54.078Z,3.60
2023-09-07T08:28:28.520Z,4.10
2023-09-07T08:30:58.047Z,3.20
2023-09-07T08:33:31.557Z,3.70
2023-09-07T08:38:30.043Z,3.90
2023-09-07T08:41:02.668Z,3.60
2023-09-07T08:43:38.784Z,3.80
2023-09-07T08:46:25.085Z,3.60
2023-09-07T08:48:54.448Z,3.50
2023-09-07T08:51:24.283Z,3.50
2023-09-07T08:53:52.707Z,3.50
2023-09-07T08:56:22.768Z,3.20
2023-09-07T08:58:51.061Z,3.80
2023-09-07T09:01:19.605Z,4.20
2023-09-07T09:03:48.221Z,3.50
2023-09-07T09:06:18.334Z,3.00
2023-09-07T09:08:50.573Z,3.10
2023-09-07T09:11:19.388Z,2.80
2023-09-07T09:13:51.917Z,3.30
2023-09-07T09:16:20.700Z,2.90
2023-09-07T09:18:54.000Z,2.50
2023-09-07T09:21:22.913Z,2.70
2023-09-07T09:23:54.146Z,2.70
2023-09-07T09:26:22.491Z,2.40
2023-09-07T09:28:54.283Z,2.50
2023-09-07T09:31:22.849Z,2.30
2023-09-07T09:33:54.554Z,2.40
2023-09-07T09:36:23.072Z,2.40
2023-09-07T09:38:52.133Z,2.00
2023-09-07T09:41:21.073Z,1.60
2023-09-07T09:43:52.893Z,1.80
2023-09-07T09:46:22.765Z,2.20
2023-09-07T09:48:50.916Z,2.60
2023-09-07T09:51:19.851Z,2.00
2023-09-07T09:53:51.240Z,1.80
2023-09-07T09:56:21.980Z,2.00
2023-09-07T09:58:50.273Z,2.00
2023-09-07T10:01:18.859Z,2.10
2023-09-07T10:03:50.976Z,2.30
2023-09-07T10:06:26.339Z,1.90
2023-09-07T10:09:20.615Z,1.30
2023-09-07T10:11:55.196Z,1.90
2023-09-07T10:14:23.568Z,2.00
2023-09-07T10:16:54.453Z,1.50
2023-09-07T10:19:50.689Z,1.90
2023-09-07T10:22:22.333Z,2.50
2023-09-07T10:24:58.567Z,2.00
2023-09-07T10:27:26.794Z,1.90
2023-09-07T10:29:56.482Z,1.40
2023-09-07T10:32:25.377Z,1.50
2023-09-07T10:34:53.567Z,1.60
2023-09-07T10:37:30.010Z,1.90
2023-09-07T10:39:59.410Z,1.70
2023-09-07T10:42:27.700Z,1.60
2023-09-07T10:44:56.183Z,1.50
2023-09-07T10:47:26.756Z,1.60
2023-09-07T10:49:54.925Z,1.70
2023-09-07T10:52:25.105Z,1.50
2023-09-07T10:55:02.387Z,1.30
2023-09-07T10:57:30.684Z,1.70
2023-09-07T11:00:00.152Z,5.50
2023-09-07T11:02:31.216Z,1.30
2023-09-07T11:04:59.519Z,1.40
2023-09-07T11:07:27.990Z,1.50
2023-09-07T11:09:56.136Z,1.50
2023-09-07T11:12:26.238Z,2.10
2023-09-07T11:14:57.825Z,1.70
2023-09-07T11:17:29.764Z,1.50
2023-09-07T11:19:58.062Z,1.40
2023-09-07T11:22:26.535Z,1.50
2023-09-07T11:24:54.849Z,1.70
2023-09-07T11:27:23.314Z,1.60
2023-09-07T11:29:52.749Z,1.60
2023-09-07T11:32:23.321Z,1.60
2023-09-07T11:34:53.874Z,1.50
2023-09-07T11:37:27.193Z,2.30
2023-09-07T11:39:55.475Z,1.30
2023-09-07T11:42:24.015Z,1.80
2023-09-07T11:44:52.334Z,1.50
2023-09-07T11:47:20.397Z,1.70
2023-09-07T11:49:50.230Z,1.50
2023-09-07T11:52:18.461Z,1.90
2023-09-07T11:54:46.688Z,1.50
2023-09-07T11:57:17.464Z,1.20
2023-09-07T11:59:58.341Z,1.60
2023-09-07T12:02:28.555Z,1.70
2023-09-07T12:04:57.638Z,1.70
2023-09-07T12:07:26.565Z,1.70
2023-09-07T12:09:57.728Z,1.50
2023-09-07T12:12:25.966Z,1.80
2023-09-07T12:14:54.201Z,1.90
2023-09-07T12:17:22.730Z,1.70
2023-09-07T12:19:51.781Z,1.40
2023-09-07T12:22:20.961Z,1.50
2023-09-07T12:24:58.747Z,2.10
2023-09-07T12:27:52.594Z,1.70
2023-09-07T12:30:22.385Z,2.20
2023-09-07T12:32:51.824Z,2.00
2023-09-07T12:35:21.491Z,2.10
2023-09-07T12:37:51.441Z,2.00
2023-09-07T12:40:19.726Z,1.90
2023-09-07T12:42:48.050Z,2.30
2023-09-07T12:45:16.669Z,2.30
2023-09-07T12:47:45.340Z,3.30
2023-09-07T12:50:13.867Z,2.50
2023-09-07T12:52:42.949Z,2.30
2023-09-07T12:55:12.046Z,2.50
2023-09-07T12:57:42.030Z,2.50
2023-09-07T13:00:12.235Z,2.60
2023-09-07T13:02:40.748Z,1.90
2023-09-07T13:05:09.467Z,2.10
2023-09-07T13:07:37.731Z,1.70
2023-09-07T13:10:06.354Z,2.20
2023-09-07T13:12:34.644Z,1.70
2023-09-07T13:15:02.849Z,1.60
2023-09-07T13:17:31.052Z,1.50
2023-09-07T13:19:59.240Z,1.50
2023-09-07T13:22:27.457Z,1.60
2023-09-07T13:24:55.690Z,2.00
2023-09-07T13:27:23.909Z,1.50
2023-09-07T13:29:52.186Z,1.70
2023-09-07T13:32:20.353Z,1.90
2023-09-07T13:34:48.510Z,1.70
2023-09-07T13:37:16.758Z,1.60
2023-09-07T13:39:45.505Z,1.40
2023-09-07T13:42:13.627Z,1.40
2023-09-07T13:44:42.027Z,1.60
2023-09-07T13:47:10.187Z,1.10
2023-09-07T13:49:38.413Z,1.90
2023-09-07T13:52:06.736Z,1.60
2023-09-07T13:54:35.041Z,1.70
2023-09-07T13:57:03.170Z,1.30
2023-09-07T13:59:34.332Z,1.20
2023-09-07T14:02:02.626Z,1.50
2023-09-07T14:04:32.752Z,1.90
2023-09-07T14:07:00.943Z,1.80
2023-09-07T14:09:29.237Z,1.50
2023-09-07T14:11:57.504Z,1.50
2023-09-07T14:14:25.869Z,1.60
2023-09-07T14:16:58.230Z,1.50
2023-09-07T14:19:28.822Z,1.80
2023-09-07T14:21:56.914Z,1.70
2023-09-07T14:24:25.596Z,1.60
2023-09-07T14:26:53.809Z,1.60
2023-09-07T14:29:22.111Z,1.60
2023-09-07T14:31:50.295Z,1.50
2023-09-07T14:34:18.469Z,1.50
2023-09-07T14:36:46.677Z,1.30
2023-09-07T14:39:14.900Z,1.50
2023-09-07T14:41:44.628Z,1.60
2023-09-07T14:44:13.354Z,2.30
2023-09-07T14:46:41.547Z,2.70
2023-09-07T14:49:09.849Z,1.90
2023-09-07T14:51:38.026Z,2.10
2023-09-07T14:54:06.244Z,2.10
2023-09-07T14:56:36.617Z,1.80
2023-09-07T14:59:05.494Z,1.70
2023-09-07T15:01:34.146Z,1.70
2023-09-07T15:04:03.116Z,1.60
2023-09-07T15:06:34.467Z,1.70
2023-09-07T15:09:02.905Z,2.00
2023-09-07T15:11:31.114Z,2.10
2023-09-07T15:13:59.609Z,1.90
2023-09-07T15:16:27.796Z,1.90
2023-09-07T15:18:55.977Z,1.60
2023-09-07T15:21:24.130Z,1.80
2023-09-07T15:23:52.265Z,1.50
2023-09-07T15:26:20.510Z,1.70
2023-09-07T15:28:49.735Z,1.50
2023-09-07T15:31:17.970Z,1.30
2023-09-07T15:33:46.133Z,1.50
2023-09-07T15:36:17.106Z,1.30
2023-09-07T15:38:46.665Z,1.70
2023-09-07T15:41:14.767Z,1.40
2023-09-07T15:43:43.484Z,1.50
2023-09-07T15:46:12.265Z,1.50
2023-09-07T15:48:44.784Z,1.30
2023-09-07T15:51:13.100Z,1.30
2023-09-07T15:53:42.461Z,1.40
2023-09-07T15:56:10.722Z,1.50
2023-09-07T15:58:40.872Z,1.80
2023-09-07T16:01:09.089Z,2.00
2023-09-07T16:03:37.967Z,1.70
2023-09-07T16:06:06.177Z,2.30
2023-09-07T16:08:34.508Z,2.00
2023-09-07T16:11:03.643Z,2.20
2023-09-07T16:13:33.445Z,2.20
2023-09-07T16:16:02.255Z,1.60
2023-09-07T16:18:31.053Z,2.00
2023-09-07T16:20:59.621Z,1.80
2023-09-07T16:23:28.194Z,2.30
2023-09-07T16:25:58.279Z,1.90
2023-09-07T16:28:26.543Z,1.90
2023-09-07T16:30:56.644Z,2.20
2023-09-07T16:33:24.777Z,2.30
2023-09-07T16:35:53.004Z,2.30
2023-09-07T16:38:22.161Z,2.90
2023-09-07T16:40:51.076Z,3.90
2023-09-07T16:43:19.412Z,4.10
2023-09-07T16:45:55.747Z,3.40
2023-09-07T16:48:24.067Z,4.90
2023-09-07T16:50:54.577Z,3.10
2023-09-07T16:53:23.453Z,3.20
2023-09-07T16:55:53.826Z,2.70
2023-09-07T16:58:24.427Z,2.90
2023-09-07T17:00:57.821Z,2.80
2023-09-07T17:03:26.145Z,2.80
2023-09-07T17:05:55.141Z,2.70
2023-09-07T17:08:23.303Z,4.60
2023-09-07T17:10:51.581Z,4.50
2023-09-07T17:13:19.743Z,3.90
2023-09-07T17:15:52.455Z,3.90
2023-09-07T17:18:20.671Z,3.20
2023-09-07T17:20:50.876Z,3.20
2023-09-07T17:23:19.119Z,2.30
2023-09-07T17:25:49.273Z,2.70
2023-09-07T17:28:17.446Z,2.00
2023-09-07T17:30:45.629Z,2.60
2023-09-07T17:33:13.836Z,2.70
2023-09-07T17:35:44.495Z,2.70
2023-09-07T17:38:12.669Z,2.00
2023-09-07T17:40:40.839Z,2.30
2023-09-07T17:43:08.989Z,2.50
2023-09-07T17:45:39.188Z,2.40
2023-09-07T17:48:08.014Z,2.20
2023-09-07T17:50:36.993Z,1.90
2023-09-07T17:53:05.928Z,2.30
2023-09-07T17:55:36.430Z,2.50
2023-09-07T17:58:05.221Z,2.50
2023-09-07T18:00:34.051Z,2.40
2023-09-07T18:03:02.457Z,2.40
2023-09-07T18:05:32.920Z,2.00
2023-09-07T18:08:01.089Z,2.30
2023-09-07T18:10:29.269Z,2.30
2023-09-07T18:12:57.375Z,2.10
2023-09-07T18:15:27.459Z,1.90
2023-09-07T18:17:55.840Z,2.80
2023-09-07T18:20:27.997Z,2.80
2023-09-07T18:22:56.291Z,2.10
2023-09-07T18:25:27.241Z,2.50
2023-09-07T18:27:55.380Z,2.30
2023-09-07T18:30:25.527Z,2.20
2023-09-07T18:32:53.749Z,2.00
2023-09-07T18:35:23.697Z,2.40
2023-09-07T18:37:52.588Z,2.60
2023-09-07T18:40:22.645Z,2.30
2023-09-07T18:42:51.485Z,2.10
2023-09-07T18:45:23.580Z,2.50
2023-09-07T18:47:51.796Z,2.90
2023-09-07T18:50:24.494Z,2.70
2023-09-07T18:52:52.878Z,2.90
2023-09-07T18:55:23.338Z,2.60
2023-09-07T18:57:51.523Z,2.80
2023-09-07T19:00:20.313Z,2.30
2023-09-07T19:02:48.803Z,2.40
2023-09-07T19:05:19.972Z,2.40
2023-09-07T19:07:48.299Z,2.80
2023-09-07T19:10:18.486Z,2.80
2023-09-07T19:12:46.800Z,2.60
2023-09-07T19:15:16.235Z,2.90
2023-09-07T19:17:44.350Z,3.10
2023-09-07T19:20:15.754Z,3.10
2023-09-07T19:22:43.941Z,3.60
2023-09-07T19:25:14.606Z,2.40
2023-09-07T19:27:43.802Z,2.50
2023-09-07T19:30:15.394Z,2.60
2023-09-07T19:32:43.610Z,2.20
2023-09-07T19:35:11.809Z,2.20
2023-09-07T19:37:39.981Z,2.50
2023-09-07T19:40:08.478Z,2.30
2023-09-07T19:42:36.767Z,2.90
2023-09-07T19:45:14.044Z,2.10
2023-09-07T19:47:42.366Z,2.70
2023-09-07T19:50:14.872Z,2.30
2023-09-07T19:52:46.891Z,2.40
2023-09-07T19:55:17.046Z,3.00
2023-09-07T19:57:45.433Z,2.10
2023-09-07T20:00:17.179Z,2.60
2023-09-07T20:02:45.390Z,2.40
2023-09-07T20:05:13.793Z,2.10
2023-09-07T20:07:44.623Z,2.20
2023-09-07T20:10:14.961Z,2.00
2023-09-07T20:12:43.103Z,2.20
2023-09-07T20:15:16.176Z,2.80
2023-09-07T20:17:44.843Z,2.20
2023-09-07T20:20:30.078Z,2.40
2023-09-07T20:22:58.312Z,2.60
2023-09-07T20:25:30.332Z,2.10
2023-09-07T20:27:58.495Z,1.80
2023-09-07T20:30:26.858Z,1.90
2023-09-07T20:32:55.113Z,2.20
2023-09-07T20:35:32.039Z,2.40
2023-09-07T20:38:00.642Z,2.00
2023-09-07T20:40:31.076Z,2.10
2023-09-07T20:42:59.412Z,2.20
2023-09-07T20:45:31.976Z,2.20
2023-09-07T20:48:00.564Z,2.20
2023-09-07T20:50:30.310Z,2.40
2023-09-07T20:52:58.657Z,2.10
2023-09-07T20:55:29.076Z,2.30
2023-09-07T20:57:57.399Z,1.90
2023-09-07T21:00:27.546Z,2.10
2023-09-07T21:02:56.140Z,2.00
2023-09-07T21:05:24.939Z,2.20
2023-09-07T21:07:53.070Z,1.90
2023-09-07T21:10:21.377Z,2.00
2023-09-07T21:12:49.566Z,2.40
2023-09-07T21:15:17.818Z,2.30
2023-09-07T21:17:46.001Z,2.10
2023-09-07T21:20:16.887Z,1.90
2023-09-07T21:22:45.018Z,1.90
2023-09-07T21:25:15.467Z,1.90
2023-09-07T21:27:45.653Z,2.00
2023-09-07T21:30:14.185Z,2.40
2023-09-07T21:32:42.576Z,2.40
2023-09-07T21:35:15.725Z,1.80
2023-09-07T21:37:43.955Z,2.20
2023-09-07T21:40:14.988Z,1.80
2023-09-07T21:42:43.235Z,1.60
2023-09-07T21:45:27.934Z,1.70
2023-09-07T21:47:56.186Z,1.80
2023-09-07T21:50:24.399Z,2.00
2023-09-07T21:52:52.722Z,1.70
2023-09-07T21:55:23.189Z,1.90
2023-09-07T21:57:52.163Z,1.70
2023-09-07T22:00:22.815Z,2.10
2023-09-07T22:02:52.407Z,1.90
2023-09-07T22:05:22.870Z,1.70
2023-09-07T22:07:51.650Z,1.30
2023-09-07T22:10:28.270Z,1.50
2023-09-07T22:13:00.363Z,1.70
2023-09-07T22:15:30.618Z,1.70
2023-09-07T22:17:58.908Z,1.80
2023-09-07T22:20:29.255Z,1.40
2023-09-07T22:22:57.459Z,1.90
2023-09-07T22:25:45.564Z,1.30
2023-09-07T22:28:14.590Z,1.70
2023-09-07T22:30:43.107Z,1.60
2023-09-07T22:33:11.339Z,1.70
2023-09-07T22:35:56.166Z,1.60
2023-09-07T22:38:24.425Z,1.90
2023-09-07T22:41:15.808Z,1.80
2023-09-07T22:43:44.016Z,1.70
2023-09-07T22:46:28.233Z,2.00
2023-09-07T22:48:56.542Z,1.60
2023-09-07T22:51:26.729Z,1.70
2023-09-07T22:53:55.175Z,1.40
2023-09-07T22:56:43.698Z,1.50
2023-09-07T22:59:11.981Z,1.30
2023-09-07T23:01:44.276Z,1.50
2023-09-07T23:04:12.609Z,1.40
2023-09-07T23:06:41.622Z,1.60
2023-09-07T23:09:10.706Z,1.30
2023-09-07T23:11:55.374Z,1.60
2023-09-07T23:14:23.589Z,1.70
2023-09-07T23:17:08.329Z,1.50
2023-09-07T23:19:36.469Z,1.60
2023-09-07T23:22:06.767Z,1.30
2023-09-07T23:24:34.953Z,2.00
2023-09-07T23:27:06.173Z,1.50
2023-09-07T23:29:34.404Z,1.80
2023-09-07T23:32:04.629Z,1.60
2023-09-07T23:34:32.821Z,1.70
2023-09-07T23:37:03.070Z,1.60
2023-09-07T23:39:31.594Z,1.40
2023-09-07T23:42:17.294Z,1.30
2023-09-07T23:44:45.507Z,1.90
2023-09-07T23:47:17.533Z,1.50
2023-09-07T23:49:45.833Z,1.60
2023-09-07T23:52:15.834Z,1.40
2023-09-07T23:54:44.145Z,1.40
2023-09-07T23:57:16.348Z,1.30
2023-09-07T23:59:44.524Z,1.40
